Time;durP1;ratioP1;P1;durP2;ratioP2;P2;SDS_P1;SDS_P2;PMS_P1;PMS_P2;Temp;Humidity;BMP_temperature;BMP_pressure;BME280_temperature;BME280_humidity;BME280_pressure;Samples;Min_cycle;Max_cycle;Signal;HPM_P1;HPM_P2
2024/02/15 00:00:37;;;;;;;4.50;2.58;;;;;;;6.90;97.57;96386.97;2091032;28;20048;-63
2024/02/15 00:01:38;;;;;;;4.25;2.90;;;;;;;6.95;97.57;96392.84;2090977;28;20451;-63
2024/02/15 00:02:39;;;;;;;5.43;3.05;;;;;;;6.99;97.49;96398.78;2090883;28;20063;-63
2024/02/15 00:03:40;;;;;;;4.63;2.80;;;;;;;6.98;97.53;96392.78;2090612;28;20064;-63
2024/02/15 00:04:42;;;;;;;4.85;2.53;;;;;;;6.98;97.09;96390.19;2090893;28;20051;-63
2024/02/15 00:05:44;;;;;;;5.40;2.65;;;;;;;6.97;97.21;96387.63;2090962;28;20049;-63
2024/02/15 00:06:45;;;;;;;4.63;2.60;;;;;;;6.94;97.27;96391.13;2091110;28;20048;-62
2024/02/15 00:07:48;;;;;;;6.88;3.20;;;;;;;6.92;97.28;96390.31;2090820;28;20036;-63
2024/02/15 00:08:52;;;;;;;5.35;2.88;;;;;;;6.89;97.57;96390.41;2090768;28;20048;-63
2024/02/15 00:09:53;;;;;;;5.65;2.80;;;;;;;6.85;98.02;96396.56;2090776;28;20056;-63
2024/02/15 00:10:54;;;;;;;3.90;2.60;;;;;;;6.82;97.89;96387.16;2090802;28;20047;-63
2024/02/15 00:11:56;;;;;;;4.75;2.83;;;;;;;6.80;98.00;96391.50;2090730;28;20041;-63
2024/02/15 00:12:57;;;;;;;3.88;2.55;;;;;;;6.76;98.28;96401.94;2090720;28;20417;-63
2024/02/15 00:13:58;;;;;;;4.15;2.20;;;;;;;6.75;98.86;96397.69;2091030;28;20045;-63
2024/02/15 00:15:00;;;;;;;3.53;2.35;;;;;;;6.75;98.89;96398.53;2090934;28;20045;-63
2024/02/15 00:16:01;;;;;;;4.05;2.45;;;;;;;6.73;98.98;96402.03;2090720;28;20048;-63
2024/02/15 00:17:04;;;;;;;4.18;2.42;;;;;;;6.72;98.94;96395.19;2090734;28;20045;-63
2024/02/15 00:18:05;;;;;;;5.75;2.78;;;;;;;6.73;99.07;96397.72;2090870;28;20055;-63
2024/02/15 00:19:07;;;;;;;3.72;2.40;;;;;;;6.70;99.06;96395.22;2089979;28;20099;-63
2024/02/15 00:20:09;;;;;;;4.32;2.42;;;;;;;6.72;99.16;96398.59;2090727;28;20045;-62
2024/02/15 00:21:11;;;;;;;4.70;2.72;;;;;;;6.69;99.08;96398.69;2090760;28;20049;-63
2024/02/15 00:22:12;;;;;;;3.78;2.38;;;;;;;6.66;99.51;96409.09;2090785;28;20037;-63
2024/02/15 00:23:16;;;;;;;6.15;2.72;;;;;;;6.65;99.44;96399.63;2090688;28;20044;-63
2024/02/15 00:24:17;;;;;;;4.82;2.72;;;;;;;6.66;99.65;96396.19;2090777;28;20056;-63
2024/02/15 00:25:19;;;;;;;5.00;2.75;;;;;;;6.66;99.40;96403.94;2090769;28;20048;-63
2024/02/15 00:26:20;;;;;;;4.32;2.45;;;;;;;6.61;99.32;96401.47;2090686;28;20053;-63
2024/02/15 00:27:21;;;;;;;3.97;2.45;;;;;;;6.62;99.92;96402.31;2090519;28;20056;-62
2024/02/15 00:28:23;;;;;;;4.10;2.20;;;;;;;6.59;99.77;96399.81;2090883;28;20047;-63
2024/02/15 00:29:28;;;;;;;3.67;2.47;;;;;;;6.59;99.96;96404.97;2090638;28;20481;-63
2024/02/15 00:30:29;;;;;;;5.20;2.53;;;;;;;6.56;99.44;96398.13;2090691;28;20515;-63
2024/02/15 00:31:30;;;;;;;4.47;2.55;;;;;;;6.52;99.68;96393.97;2090367;28;20056;-63
2024/02/15 00:32:31;;;;;;;4.80;2.42;;;;;;;6.51;99.80;96393.97;2091025;28;20048;-62
2024/02/15 00:33:32;;;;;;;4.70;2.30;;;;;;;6.50;100.00;96400.88;2090875;28;20053;-63
2024/02/15 00:34:33;;;;;;;4.65;2.72;;;;;;;6.53;100.00;96397.38;2090798;28;20036;-63
2024/02/15 00:35:35;;;;;;;4.35;2.60;;;;;;;6.56;100.00;96399.88;2090649;28;20088;-63
2024/02/15 00:36:36;;;;;;;4.35;2.97;;;;;;;6.56;100.00;96399.88;2090630;28;20049;-63
2024/02/15 00:37:37;;;;;;;6.68;3.10;;;;;;;6.57;100.00;96404.16;2090385;28;20485;-63
2024/02/15 00:38:38;;;;;;;5.35;2.70;;;;;;;6.58;100.00;96403.28;2090637;28;20041;-63
2024/02/15 00:39:39;;;;;;;3.30;2.10;;;;;;;6.62;100.00;96404.88;2090440;28;20048;-63
2024/02/15 00:40:41;;;;;;;4.72;2.58;;;;;;;6.67;100.00;96402.19;2091132;28;20045;-63
2024/02/15 00:41:42;;;;;;;4.78;2.30;;;;;;;6.69;100.00;96397.84;2090195;28;20037;-63
2024/02/15 00:42:43;;;;;;;4.80;2.50;;;;;;;6.71;99.98;96398.63;2090679;28;20059;-63
2024/02/15 00:43:44;;;;;;;3.95;2.63;;;;;;;6.73;99.87;96408.03;2090347;28;20382;-63
2024/02/15 00:44:45;;;;;;;4.15;2.67;;;;;;;6.75;99.54;96400.25;2090578;28;20052;-63
2024/02/15 00:45:46;;;;;;;4.65;2.72;;;;;;;6.76;99.57;96405.41;2090501;28;20040;-63
2024/02/15 00:46:47;;;;;;;4.57;2.90;;;;;;;6.76;98.96;96402.81;2090075;28;20512;-63
2024/02/15 00:47:49;;;;;;;6.45;2.90;;;;;;;6.78;99.21;96402.75;2089981;28;20051;-63
2024/02/15 00:48:50;;;;;;;3.72;2.28;;;;;;;6.79;98.98;96400.16;2090463;28;20044;-63
2024/02/15 00:49:51;;;;;;;4.75;2.28;;;;;;;6.80;98.75;96401.00;2090700;28;20377;-63
2024/02/15 00:50:52;;;;;;;5.05;2.63;;;;;;;6.81;98.64;96397.50;2090804;28;20049;-63
2024/02/15 00:51:53;;;;;;;3.95;2.50;;;;;;;6.83;98.54;96399.16;2090762;28;20037;-63
2024/02/15 00:52:54;;;;;;;5.70;2.63;;;;;;;6.83;98.45;96404.34;2090973;28;20406;-63
2024/02/15 00:53:55;;;;;;;4.32;2.45;;;;;;;6.82;98.57;96399.22;2090561;28;20036;-63
2024/02/15 00:54:56;;;;;;;5.88;2.53;;;;;;;6.85;98.45;96402.56;2090553;28;20037;-63
2024/02/15 00:55:58;;;;;;;3.75;2.40;;;;;;;6.88;98.28;96400.81;2090650;28;20048;-63
2024/02/15 00:56:59;;;;;;;5.60;2.58;;;;;;;6.92;98.05;96402.41;2090294;28;20132;-63
2024/02/15 00:58:00;;;;;;;5.57;2.95;;;;;;;6.95;97.79;96398.03;2090303;28;20052;-63
2024/02/15 00:59:01;;;;;;;3.75;2.30;;;;;;;6.97;97.87;96403.13;2090208;28;20044;-63
2024/02/15 01:00:06;;;;;;;8.15;2.85;;;;;;;6.98;97.86;96403.09;2090596;28;20401;-62
2024/02/15 01:01:08;;;;;;;4.82;2.50;;;;;;;6.98;97.69;96399.69;2090393;28;20485;-63
2024/02/15 01:02:09;;;;;;;6.20;2.30;;;;;;;7.01;97.48;96404.75;2090263;28;20044;-63
2024/02/15 01:03:10;;;;;;;5.15;2.60;;;;;;;7.02;97.36;96403.84;2089608;28;20075;-63
2024/02/15 01:04:12;;;;;;;4.43;2.55;;;;;;;7.02;97.49;96398.69;2090820;28;20052;-63
2024/02/15 01:05:15;;;;;;;4.80;2.72;;;;;;;6.98;97.16;96394.50;2090385;28;20041;-63
2024/02/15 01:06:17;;;;;;;5.20;2.53;;;;;;;7.01;97.60;96397.00;2090307;28;20041;-62
2024/02/15 01:07:18;;;;;;;4.43;2.78;;;;;;;7.00;97.17;96393.59;2090397;28;20048;-63
2024/02/15 01:08:20;;;;;;;5.63;3.10;;;;;;;6.99;97.14;96394.44;2090117;28;20049;-63
2024/02/15 01:09:24;;;;;;;5.43;2.60;;;;;;;6.99;97.22;96394.44;2089897;28;20056;-63
2024/02/15 01:10:26;;;;;;;5.68;2.90;;;;;;;6.97;97.05;96395.38;2090063;28;20053;-63
2024/02/15 01:11:28;;;;;;;4.68;2.70;;;;;;;6.95;97.14;96399.72;2089597;28;20056;-63
2024/02/15 01:12:29;;;;;;;5.68;2.90;;;;;;;6.95;97.26;96387.69;2090011;28;20052;-63
2024/02/15 01:13:30;;;;;;;6.40;3.08;;;;;;;6.97;97.00;96392.78;2090028;28;20060;-62
2024/02/15 01:14:31;;;;;;;3.65;2.65;;;;;;;6.92;97.30;96386.91;2089940;28;20493;-63
2024/02/15 01:15:32;;;;;;;4.95;3.17;;;;;;;6.84;97.48;96393.13;2089986;28;20057;-62
2024/02/15 01:16:35;;;;;;;5.78;3.13;;;;;;;6.84;97.68;96390.56;2090084;28;20052;-63
2024/02/15 01:17:36;;;;;;;5.20;3.22;;;;;;;6.83;97.36;96386.25;2089900;28;20055;-63
2024/02/15 01:18:37;;;;;;;7.22;3.78;;;;;;;6.82;97.87;96391.47;2089788;28;20040;-63
2024/02/15 01:19:38;;;;;;;5.57;3.28;;;;;;;6.80;98.04;96394.09;2089247;28;20056;-63
2024/02/15 01:20:40;;;;;;;4.68;2.90;;;;;;;6.79;97.78;96400.16;2089164;28;20053;-63
2024/02/15 01:21:43;;;;;;;5.20;3.20;;;;;;;6.77;98.19;96398.50;2090272;28;20061;-63
2024/02/15 01:22:46;;;;;;;5.43;2.92;;;;;;;6.76;98.15;96397.66;2090227;28;20405;-63
2024/02/15 01:23:47;;;;;;;6.63;3.70;;;;;;;6.74;98.53;96402.00;2090271;28;20048;-63
2024/02/15 01:24:49;;;;;;;4.50;3.20;;;;;;;6.69;98.50;96395.25;2090211;28;20370;-62
2024/02/15 01:25:50;;;;;;;6.50;3.30;;;;;;;6.69;98.87;96396.09;2090473;28;20072;-63
2024/02/15 01:26:53;;;;;;;5.68;3.35;;;;;;;6.68;99.11;96398.72;2090396;28;20032;-63
2024/02/15 01:27:54;;;;;;;6.95;3.33;;;;;;;6.68;99.04;96396.97;2090279;28;20410;-63
2024/02/15 01:28:55;;;;;;;5.00;3.35;;;;;;;6.68;98.75;96393.56;2090215;28;20057;-63
2024/02/15 01:29:57;;;;;;;5.43;2.88;;;;;;;6.68;99.14;96394.41;2090310;28;20025;-63
2024/02/15 01:30:58;;;;;;;7.47;3.33;;;;;;;6.69;98.62;96398.69;2090168;28;20041;-63
2024/02/15 01:31:59;;;;;;;7.63;3.10;;;;;;;6.63;98.90;96396.28;2089743;28;20053;-63
2024/02/15 01:33:00;;;;;;;5.35;3.25;;;;;;;6.66;99.03;96390.19;2090334;28;20041;-63
2024/02/15 01:34:02;;;;;;;5.97;3.25;;;;;;;6.68;98.90;96393.56;2090214;28;20045;-63
2024/02/15 01:35:03;;;;;;;5.53;3.30;;;;;;;6.64;99.01;96385.06;2090250;28;20385;-63
2024/02/15 01:36:05;;;;;;;5.93;2.95;;;;;;;6.63;99.14;96388.53;2090208;28;20040;-63
2024/02/15 01:37:06;;;;;;;5.10;2.83;;;;;;;6.62;99.38;96387.66;2090372;28;20041;-63
2024/02/15 01:38:07;;;;;;;4.72;3.05;;;;;;;6.66;98.99;96391.03;2090581;28;20036;-63
2024/02/15 01:39:08;;;;;;;5.70;3.67;;;;;;;6.69;99.02;96390.09;2090237;28;20033;-63
2024/02/15 01:40:12;;;;;;;7.32;3.50;;;;;;;6.70;99.19;96391.78;2090456;28;20461;-63
2024/02/15 01:41:13;;;;;;;5.88;3.35;;;;;;;6.68;99.37;96394.41;2090151;28;20040;-63
2024/02/15 01:42:14;;;;;;;6.28;3.35;;;;;;;6.70;98.99;96399.53;2090225;28;20045;-63
2024/02/15 01:43:15;;;;;;;5.43;3.42;;;;;;;6.75;98.59;96395.94;2090319;28;20528;-63
2024/02/15 01:44:20;;;;;;;5.93;3.47;;;;;;;6.78;98.52;96395.00;2090296;28;20048;-63
2024/02/15 01:45:21;;;;;;;6.82;3.67;;;;;;;6.78;98.49;96397.59;2090202;28;20484;-63
2024/02/15 01:46:22;;;;;;;5.40;3.25;;;;;;;6.77;98.47;96394.19;2090182;28;20048;-63
2024/02/15 01:47:23;;;;;;;5.32;3.53;;;;;;;6.78;98.20;96390.69;2090120;28;20049;-63
2024/02/15 01:48:25;;;;;;;4.93;3.22;;;;;;;6.79;98.40;96397.56;2081672;28;20050;-63
2024/02/15 01:49:26;;;;;;;6.25;3.08;;;;;;;6.73;98.43;96394.28;2081465;28;20049;-63
2024/02/15 01:50:28;;;;;;;6.22;3.60;;;;;;;6.68;98.57;96394.41;2073261;28;20568;-63
2024/02/15 01:51:29;;;;;;;5.65;3.38;;;;;;;6.64;98.67;96387.63;2073328;28;20101;-62
2024/02/15 01:52:31;;;;;;;6.00;3.08;;;;;;;6.60;99.12;96388.56;2089315;28;20150;-63
2024/02/15 01:53:32;;;;;;;6.18;3.13;;;;;;;6.56;99.48;96384.41;2081354;28;20041;-63
2024/02/15 01:54:33;;;;;;;5.25;3.15;;;;;;;6.54;99.71;96387.00;2089790;28;20057;-63
2024/02/15 01:55:34;;;;;;;5.25;2.88;;;;;;;6.51;99.80;96383.66;2089516;28;20075;-63
2024/02/15 01:56:36;;;;;;;4.90;3.42;;;;;;;6.47;99.99;96382.91;2089150;28;20045;-63
2024/02/15 01:57:37;;;;;;;5.80;3.67;;;;;;;6.46;100.00;96388.09;2090160;28;20056;-63
2024/02/15 01:58:40;;;;;;;6.50;3.53;;;;;;;6.43;100.00;96390.75;2090103;28;20037;-63
2024/02/15 01:59:41;;;;;;;4.88;3.30;;;;;;;6.39;100.00;96387.41;2081639;28;20086;-63
2024/02/15 02:00:42;;;;;;;4.43;3.22;;;;;;;6.38;100.00;96385.69;2081646;28;20060;-63
2024/02/15 02:01:43;;;;;;;5.80;3.67;;;;;;;6.36;100.00;96390.91;2097856;28;20060;-63
2024/02/15 02:02:45;;;;;;;6.30;3.60;;;;;;;6.38;100.00;96385.69;2089385;28;20052;-63
2024/02/15 02:03:46;;;;;;;5.55;3.40;;;;;;;6.39;100.00;96385.66;2089870;28;20446;-63
2024/02/15 02:04:47;;;;;;;6.38;3.38;;;;;;;6.40;100.00;96378.78;2090037;28;20053;-63
2024/02/15 02:05:49;;;;;;;5.72;3.45;;;;;;;6.46;100.00;96385.50;2089607;28;20560;-63
2024/02/15 02:06:50;;;;;;;4.97;2.92;;;;;;;6.46;100.00;96381.19;2089565;28;20041;-63
2024/02/15 02:07:51;;;;;;;5.97;3.20;;;;;;;6.46;100.00;96378.59;2089096;28;20049;-63
2024/02/15 02:08:53;;;;;;;4.88;3.25;;;;;;;6.49;100.00;96381.09;2089407;28;20044;-63
2024/02/15 02:09:54;;;;;;;5.40;3.05;;;;;;;6.51;100.00;96379.34;2089728;28;20049;-62
2024/02/15 02:10:56;;;;;;;5.20;3.00;;;;;;;6.52;100.00;96373.31;2090027;28;20037;-63
2024/02/15 02:11:57;;;;;;;5.60;3.10;;;;;;;6.54;100.00;96370.69;2089855;28;20128;-63
2024/02/15 02:13:02;;;;;;;4.68;3.10;;;;;;;6.49;100.00;96372.53;2081397;28;20056;-63
2024/02/15 02:14:04;;;;;;;7.90;3.50;;;;;;;6.51;100.00;96366.44;2082184;28;20555;-63
2024/02/15 02:15:06;;;;;;;5.18;3.13;;;;;;;6.54;100.00;96362.94;2091298;28;20465;-63
2024/02/15 02:16:31;;;;;;;7.40;3.47;;;;;;;6.56;100.00;96363.75;2092444;28;20052;-63
2024/02/15 02:17:34;;;;;;;6.68;3.50;;;;;;;6.54;100.00;96368.94;2091940;28;20413;-63
2024/02/15 02:18:35;;;;;;;4.97;3.10;;;;;;;6.52;100.00;96363.00;2090831;28;20093;-63
2024/02/15 02:19:38;;;;;;;6.13;3.70;;;;;;;6.51;100.00;96363.03;2091693;28;20405;-63
2024/02/15 02:20:39;;;;;;;7.10;3.15;;;;;;;6.49;100.00;96369.94;2091636;28;20049;-63
2024/02/15 02:21:40;;;;;;;4.93;3.10;;;;;;;6.48;100.00;96366.53;2092051;28;20061;-63
2024/02/15 02:22:41;;;;;;;4.50;2.80;;;;;;;6.49;100.00;96365.63;2091450;28;20049;-63
2024/02/15 02:23:42;;;;;;;6.03;3.13;;;;;;;6.50;100.00;96371.66;2090800;28;20436;-63
2024/02/15 02:25:03;;;;;;;5.85;3.47;;;;;;;6.45;100.00;96376.09;2082904;28;20044;-62
2024/02/15 02:26:04;;;;;;;7.35;3.42;;;;;;;6.45;100.00;96369.19;2085121;28;20072;-63
2024/02/15 02:27:05;;;;;;;6.15;3.05;;;;;;;6.41;100.00;96370.13;2090976;28;20033;-63
2024/02/15 02:28:06;;;;;;;9.10;3.42;;;;;;;6.37;100.00;96369.38;2082792;28;20041;-63
2024/02/15 02:29:07;;;;;;;4.93;3.08;;;;;;;6.39;100.00;96375.34;2082970;28;20030;-63
2024/02/15 02:30:21;;;;;;;5.03;3.33;;;;;;;6.43;100.00;96375.28;2090774;28;20396;-62
2024/02/15 02:31:22;;;;;;;7.30;3.03;;;;;;;6.37;100.00;96377.13;2091691;28;20068;-62
2024/02/15 02:32:23;;;;;;;4.68;3.38;;;;;;;6.41;100.00;96375.28;2091166;28;20056;-63
2024/02/15 02:33:28;;;;;;;4.68;3.40;;;;;;;6.38;100.00;96368.47;2091553;28;20060;-63
2024/02/15 02:34:29;;;;;;;9.70;3.38;;;;;;;6.32;100.00;96371.22;2091596;28;20044;-63
2024/02/15 02:35:33;;;;;;;6.53;3.22;;;;;;;6.27;100.00;96370.47;2091676;28;20461;-63
2024/02/15 02:36:34;;;;;;;8.07;3.20;;;;;;;6.30;100.00;96372.13;2091641;28;20040;-62
2024/02/15 02:37:36;;;;;;;5.10;3.20;;;;;;;6.28;100.00;96364.44;2091574;28;20041;-62
2024/02/15 02:38:37;;;;;;;5.13;3.30;;;;;;;6.30;100.00;96372.97;2091395;28;20053;-63
2024/02/15 02:39:39;;;;;;;5.72;3.03;;;;;;;6.29;100.00;96365.28;2091510;28;20052;-63
2024/02/15 02:40:41;;;;;;;4.88;3.10;;;;;;;6.33;100.00;96370.31;2092103;28;20056;-63
2024/02/15 02:41:42;;;;;;;6.25;3.03;;;;;;;6.31;100.00;96364.38;2091601;28;20045;-63
2024/02/15 02:42:56;;;;;;;6.07;3.58;;;;;;;6.32;100.00;96360.06;2091551;28;20057;-63
2024/02/15 02:43:57;;;;;;;5.35;3.38;;;;;;;6.32;100.00;96367.78;2091494;28;20052;-62
2024/02/15 02:44:58;;;;;;;4.90;2.70;;;;;;;6.29;100.00;96355.81;2091502;28;20496;-62
2024/02/15 02:45:59;;;;;;;5.38;2.72;;;;;;;6.27;100.00;96362.75;2091218;28;20057;-63
2024/02/15 02:47:01;;;;;;;5.15;3.22;;;;;;;6.27;100.00;96359.31;2091971;28;20071;-63
2024/02/15 02:48:02;;;;;;;7.07;3.55;;;;;;;6.24;100.00;96361.97;2091487;28;20045;-63
2024/02/15 02:49:03;;;;;;;6.25;3.25;;;;;;;6.22;100.00;96358.59;2092162;28;20056;-62
2024/02/15 02:50:04;;;;;;;6.43;3.17;;;;;;;6.22;100.00;96359.41;2091408;28;20503;-63
2024/02/15 02:51:06;;;;;;;6.07;3.03;;;;;;;6.24;100.00;96354.25;2091192;28;20052;-62
2024/02/15 02:52:07;;;;;;;6.30;3.17;;;;;;;6.23;100.00;96355.97;2090747;28;20049;-63
2024/02/15 02:53:10;;;;;;;5.22;2.80;;;;;;;6.25;100.00;96358.50;2090992;28;20425;-63
2024/02/15 02:54:11;;;;;;;5.82;3.25;;;;;;;6.24;100.00;96354.25;2091238;28;20420;-62
2024/02/15 02:55:13;;;;;;;4.22;2.70;;;;;;;6.24;100.00;96352.50;2091864;28;20044;-63
2024/02/15 02:56:14;;;;;;;5.25;2.80;;;;;;;6.24;100.00;96362.81;2091579;28;20064;-62
2024/02/15 02:57:15;;;;;;;7.05;2.78;;;;;;;6.25;100.00;96353.34;2091502;28;20595;-63
2024/02/15 02:58:16;;;;;;;6.03;2.90;;;;;;;6.25;100.00;96361.91;2091778;28;20048;-63
2024/02/15 02:59:17;;;;;;;4.93;3.00;;;;;;;6.24;100.00;96357.66;2091379;28;20049;-62
2024/02/15 03:00:19;;;;;;;4.75;2.58;;;;;;;6.22;100.00;96358.59;2091119;28;20052;-62
2024/02/15 03:01:24;;;;;;;4.65;2.90;;;;;;;6.21;100.00;96360.31;2091304;28;20053;-63
2024/02/15 03:02:26;;;;;;;4.68;2.90;;;;;;;6.19;100.00;96356.91;2091049;28;20053;-63
2024/02/15 03:03:27;;;;;;;4.60;2.83;;;;;;;6.15;100.00;96352.75;2091424;28;20057;-63
2024/02/15 03:04:28;;;;;;;5.03;2.90;;;;;;;6.15;100.00;96361.31;2091389;28;20147;-63
2024/02/15 03:05:29;;;;;;;4.75;3.03;;;;;;;6.15;100.00;96363.06;2091514;28;20406;-63
2024/02/15 03:06:30;;;;;;;3.90;2.50;;;;;;;6.15;100.00;96358.75;2091325;28;20060;-62
2024/02/15 03:07:34;;;;;;;6.15;3.38;;;;;;;6.13;100.00;96354.50;2091543;28;20052;-63
2024/02/15 03:08:35;;;;;;;5.05;3.00;;;;;;;6.11;100.00;96354.53;2091330;28;20056;-63
2024/02/15 03:09:37;;;;;;;4.28;2.85;;;;;;;6.12;100.00;96355.38;2091429;28;20043;-63
2024/02/15 03:10:38;;;;;;;5.47;3.15;;;;;;;6.09;100.00;96355.44;2091195;28;20485;-63
2024/02/15 03:11:39;;;;;;;5.28;2.75;;;;;;;6.07;100.00;96358.06;2091277;28;20048;-63
2024/02/15 03:12:46;;;;;;;5.82;3.03;;;;;;;6.04;100.00;96359.84;2091397;28;20037;-63
2024/02/15 03:13:48;;;;;;;6.25;3.35;;;;;;;6.03;100.00;96355.59;2091285;28;20055;-63
2024/02/15 03:14:49;;;;;;;5.78;2.90;;;;;;;6.01;100.00;96347.03;2090762;28;20628;-63
2024/02/15 03:15:50;;;;;;;5.88;2.80;;;;;;;5.98;100.00;96350.53;2090718;28;20033;-63
2024/02/15 03:16:52;;;;;;;6.28;2.80;;;;;;;5.92;100.00;96348.94;2091299;28;20041;-63
2024/02/15 03:17:53;;;;;;;7.38;3.40;;;;;;;5.90;100.00;96345.53;2091238;28;20049;-63
2024/02/15 03:18:54;;;;;;;4.43;2.97;;;;;;;5.87;100.00;96337.88;2090383;28;20070;-63
2024/02/15 03:19:55;;;;;;;5.97;3.17;;;;;;;5.86;100.00;96350.81;2090923;28;20041;-63
2024/02/15 03:20:56;;;;;;;6.50;3.40;;;;;;;5.83;100.00;96343.16;2091715;28;20051;-63
2024/02/15 03:21:57;;;;;;;5.43;2.70;;;;;;;5.80;100.00;96345.78;2091247;28;20053;-63
2024/02/15 03:22:59;;;;;;;5.32;3.35;;;;;;;5.78;100.00;96345.81;2091303;28;20045;-63
2024/02/15 03:24:00;;;;;;;5.15;3.10;;;;;;;5.75;100.00;96348.47;2091291;28;20132;-63
2024/02/15 03:25:02;;;;;;;4.68;2.92;;;;;;;5.73;100.00;96345.94;2091173;28;20043;-63
2024/02/15 03:26:06;;;;;;;6.28;3.10;;;;;;;5.71;100.00;96352.00;2091178;28;20500;-63
2024/02/15 03:27:10;;;;;;;5.28;2.65;;;;;;;5.68;100.00;96352.91;2091533;28;20497;-63
2024/02/15 03:28:11;;;;;;;6.15;3.55;;;;;;;5.66;100.00;96353.81;2091194;28;20044;-62
2024/02/15 03:29:12;;;;;;;5.05;3.15;;;;;;;5.66;100.00;96352.09;2091271;28;20048;-63
2024/02/15 03:30:13;;;;;;;6.15;3.17;;;;;;;5.64;100.00;96350.41;2091146;28;20501;-63
2024/02/15 03:31:15;;;;;;;4.65;2.97;;;;;;;5.63;100.00;96348.75;2091050;28;20029;-63
2024/02/15 03:32:16;;;;;;;8.45;3.60;;;;;;;5.63;100.00;96352.16;2091170;28;20406;-63
2024/02/15 03:33:17;;;;;;;5.80;3.08;;;;;;;5.59;100.00;96350.53;2091204;28;20045;-63
2024/02/15 03:34:21;;;;;;;5.53;3.25;;;;;;;5.56;100.00;96347.16;2090862;28;20049;-62
2024/02/15 03:35:24;;;;;;;6.95;3.35;;;;;;;5.53;100.00;96354.09;2091113;28;20448;-62
2024/02/15 03:36:25;;;;;;;5.78;3.33;;;;;;;5.51;100.00;96355.88;2091179;28;20540;-63
2024/02/15 03:37:26;;;;;;;6.20;3.65;;;;;;;5.51;100.00;96350.72;2090875;28;20049;-63
2024/02/15 03:38:29;;;;;;;5.72;2.70;;;;;;;5.46;100.00;96352.53;2091197;28;20476;-62
2024/02/15 03:39:30;;;;;;;7.35;3.20;;;;;;;5.46;100.00;96356.84;2090753;28;20045;-62
2024/02/15 03:40:32;;;;;;;6.05;3.50;;;;;;;5.42;100.00;96356.03;2091131;28;20045;-62
2024/02/15 03:41:33;;;;;;;4.90;3.17;;;;;;;5.40;100.00;96359.53;2091036;28;20509;-63
2024/02/15 03:42:36;;;;;;;5.07;3.25;;;;;;;5.35;100.00;96357.06;2091137;28;20029;-63
2024/02/15 03:43:38;;;;;;;5.22;3.28;;;;;;;5.36;100.00;96356.19;2091067;28;20071;-63
2024/02/15 03:44:41;;;;;;;4.40;3.03;;;;;;;5.35;100.00;96358.81;2091169;28;20378;-63
2024/02/15 03:45:44;;;;;;;6.53;3.55;;;;;;;5.34;100.00;96368.22;2091050;28;20135;-63
2024/02/15 03:46:50;;;;;;;4.63;3.22;;;;;;;5.28;100.00;96352.91;2091089;28;20480;-62
2024/02/15 03:47:52;;;;;;;6.60;3.30;;;;;;;5.23;100.00;96354.75;2091095;28;20045;-62
2024/02/15 03:48:53;;;;;;;7.35;3.60;;;;;;;5.21;100.00;96353.91;2091185;28;20061;-63
2024/02/15 03:49:55;;;;;;;4.78;3.10;;;;;;;5.19;100.00;96355.69;2090993;28;20044;-62
2024/02/15 03:50:58;;;;;;;6.95;3.60;;;;;;;5.16;100.00;96355.72;2090797;28;20452;-63
2024/02/15 03:52:02;;;;;;;5.95;3.35;;;;;;;5.16;100.00;96355.72;2090937;28;20417;-63
2024/02/15 03:53:03;;;;;;;5.20;3.10;;;;;;;5.20;100.00;96357.38;2090359;28;20045;-63
2024/02/15 03:54:04;;;;;;;5.25;3.10;;;;;;;5.22;100.00;96356.47;2090228;28;20508;-62
2024/02/15 03:55:07;;;;;;;5.95;3.35;;;;;;;5.22;100.00;96351.31;2091132;28;20037;-63
2024/02/15 03:56:08;;;;;;;4.93;3.08;;;;;;;5.18;100.00;96357.41;2090994;28;20029;-63
2024/02/15 03:57:11;;;;;;;4.70;3.13;;;;;;;5.16;100.00;96348.88;2090880;28;20037;-63
2024/02/15 03:58:14;;;;;;;5.63;3.33;;;;;;;5.19;100.00;96355.69;2090948;28;20045;-63
2024/02/15 03:59:15;;;;;;;6.60;2.90;;;;;;;5.16;100.00;96359.19;2090929;28;20413;-62
2024/02/15 04:00:20;;;;;;;5.90;3.40;;;;;;;5.19;100.00;96353.13;2090894;28;20048;-63
2024/02/15 04:01:21;;;;;;;6.25;3.55;;;;;;;5.17;100.00;96360.03;2090897;28;20056;-63
2024/02/15 04:02:26;;;;;;;5.25;3.42;;;;;;;5.11;100.00;96360.16;2091108;28;20091;-63
2024/02/15 04:03:27;;;;;;;4.68;3.47;;;;;;;5.10;100.00;96356.69;2090822;28;20412;-62
2024/02/15 04:04:29;;;;;;;6.22;3.55;;;;;;;5.13;100.00;96360.94;2090554;28;20060;-63
2024/02/15 04:05:30;;;;;;;6.18;3.60;;;;;;;5.08;100.00;96363.63;2090904;28;20417;-63
2024/02/15 04:06:33;;;;;;;7.18;3.28;;;;;;;5.05;100.00;96361.97;2090863;28;20037;-63
2024/02/15 04:07:34;;;;;;;5.03;3.20;;;;;;;5.05;100.00;96358.53;2091007;28;20056;-63
2024/02/15 04:08:38;;;;;;;4.82;2.95;;;;;;;5.10;100.00;96364.44;2090780;28;20045;-63
2024/02/15 04:09:40;;;;;;;5.10;3.40;;;;;;;5.09;100.00;96363.59;2090810;28;20049;-62
2024/02/15 04:10:41;;;;;;;7.88;3.92;;;;;;;5.08;100.00;96366.22;2090878;28;20053;-63
2024/02/15 04:11:42;;;;;;;5.80;3.08;;;;;;;5.06;100.00;96363.66;2090454;28;20053;-63
2024/02/15 04:12:43;;;;;;;6.20;3.78;;;;;;;5.06;100.00;96365.38;2090214;28;20051;-63
2024/02/15 04:13:44;;;;;;;6.22;3.83;;;;;;;5.06;100.00;96366.22;2090320;28;20053;-63
2024/02/15 04:14:46;;;;;;;6.13;3.75;;;;;;;5.02;100.00;96367.16;2090854;28;20096;-63
2024/02/15 04:15:49;;;;;;;5.93;3.40;;;;;;;4.96;100.00;96369.00;2090802;28;20049;-63
2024/02/15 04:16:50;;;;;;;6.10;3.38;;;;;;;4.93;100.00;96372.50;2090766;28;20037;-63
2024/02/15 04:17:56;;;;;;;5.50;3.70;;;;;;;4.92;100.00;96368.22;2090825;28;20052;-62
2024/02/15 04:18:57;;;;;;;6.07;3.60;;;;;;;4.90;100.00;96364.81;2090760;28;20049;-63
2024/02/15 04:19:58;;;;;;;7.65;3.47;;;;;;;4.84;100.00;96364.94;2090860;28;20075;-63
2024/02/15 04:20:59;;;;;;;6.85;3.80;;;;;;;4.82;100.00;96364.13;2090954;28;20048;-63
2024/02/15 04:22:04;;;;;;;4.82;3.25;;;;;;;4.80;100.00;96363.31;2090947;28;20040;-63
2024/02/15 04:23:05;;;;;;;6.07;3.17;;;;;;;4.75;100.00;96363.38;2090801;28;20048;-62
2024/02/15 04:24:06;;;;;;;4.88;3.10;;;;;;;4.74;100.00;96366.84;2090918;28;20033;-63
2024/02/15 04:25:10;;;;;;;6.75;3.47;;;;;;;4.72;100.00;96362.59;2090725;28;20047;-63
2024/02/15 04:26:13;;;;;;;6.68;3.40;;;;;;;4.74;100.00;96366.00;2090735;28;20044;-63
2024/02/15 04:27:14;;;;;;;6.15;3.85;;;;;;;4.74;100.00;96366.84;2090642;28;20040;-63
2024/02/15 04:28:15;;;;;;;6.28;3.60;;;;;;;4.71;100.00;96359.19;2090736;28;20052;-63
2024/02/15 04:29:17;;;;;;;5.38;3.70;;;;;;;4.69;100.00;96354.94;2091199;28;20511;-63
2024/02/15 04:30:19;;;;;;;6.05;3.20;;;;;;;4.69;100.00;96368.66;2090732;28;20503;-63
2024/02/15 04:31:26;;;;;;;6.38;3.50;;;;;;;4.64;100.00;96362.72;2090613;28;20044;-63
2024/02/15 04:32:28;;;;;;;7.80;3.63;;;;;;;4.61;100.00;96350.78;2090743;28;20055;-63
2024/02/15 04:33:29;;;;;;;4.75;3.20;;;;;;;4.62;100.00;96357.63;2090755;28;20449;-63
2024/02/15 04:34:33;;;;;;;7.45;3.67;;;;;;;4.62;100.00;96367.91;2090336;28;20040;-64
2024/02/15 04:35:35;;;;;;;6.80;3.67;;;;;;;4.59;100.00;96354.25;2090458;28;20508;-63
2024/02/15 04:36:37;;;;;;;8.50;3.65;;;;;;;4.59;100.00;96356.81;2090460;28;20056;-63
2024/02/15 04:37:38;;;;;;;6.57;3.10;;;;;;;4.58;100.00;96353.41;2089748;28;20049;-62
2024/02/15 04:38:39;;;;;;;7.38;3.47;;;;;;;4.54;100.00;96351.75;2090164;28;20492;-63
2024/02/15 04:39:40;;;;;;;7.40;3.63;;;;;;;4.52;100.00;96358.66;2090152;28;20036;-63
2024/02/15 04:40:41;;;;;;;4.82;3.17;;;;;;;4.49;100.00;96356.16;2090230;28;20060;-62
2024/02/15 04:41:42;;;;;;;5.78;3.28;;;;;;;4.48;100.00;96359.56;2090531;28;20090;-63
2024/02/15 04:42:45;;;;;;;5.45;3.42;;;;;;;4.44;100.00;96352.81;2090421;28;20400;-63
2024/02/15 04:43:46;;;;;;;5.38;3.50;;;;;;;4.45;100.00;96353.66;2090464;28;20044;-63
2024/02/15 04:44:48;;;;;;;5.55;3.50;;;;;;;4.45;100.00;96358.78;2091042;28;20053;-63
2024/02/15 04:45:49;;;;;;;7.30;3.42;;;;;;;4.44;100.00;96360.53;2090567;28;20063;-63
2024/02/15 04:46:50;;;;;;;5.30;3.00;;;;;;;4.43;100.00;96359.66;2090724;28;20047;-63
2024/02/15 04:47:53;;;;;;;5.78;3.63;;;;;;;4.40;100.00;96353.72;2090996;28;20049;-62
2024/02/15 04:48:55;;;;;;;5.93;3.70;;;;;;;4.37;100.00;96362.34;2090484;28;20390;-63
2024/02/15 04:49:56;;;;;;;5.28;3.30;;;;;;;4.37;100.00;96353.78;2090549;28;20507;-63
2024/02/15 04:50:59;;;;;;;7.70;3.33;;;;;;;4.39;100.00;96354.59;2090542;28;20064;-63
2024/02/15 04:52:03;;;;;;;5.63;2.90;;;;;;;4.37;100.00;96359.75;2090366;28;20029;-63
2024/02/15 04:53:07;;;;;;;8.38;3.35;;;;;;;4.36;100.00;96360.66;2090655;28;20409;-63